createdAt,value
2022-10-01T00:00:32.311Z,9.222222222222285
2022-10-01T00:01:32.675Z,9.222222222222285
2022-10-01T00:02:32.369Z,9.222222222222285
2022-10-01T00:03:33.077Z,9.222222222222285
2022-10-01T00:04:32.310Z,9.222222222222285
2022-10-01T00:05:32.266Z,9.222222222222285
2022-10-01T00:06:32.313Z,9.222222222222285
2022-10-01T00:07:32.295Z,9.222222222222285
2022-10-01T00:08:32.282Z,9.222222222222285
2022-10-01T00:09:32.319Z,9.222222222222285
2022-10-01T00:10:32.293Z,9.222222222222285
2022-10-01T00:11:32.688Z,9.222222222222285
2022-10-01T00:12:32.290Z,9.222222222222285
2022-10-01T00:13:32.275Z,9.222222222222285
2022-10-01T00:14:32.279Z,9.111111111111143
2022-10-01T00:15:32.275Z,9.111111111111143
2022-10-01T00:16:32.369Z,9.111111111111143
2022-10-01T00:17:32.277Z,9.111111111111143
2022-10-01T00:18:32.271Z,9.111111111111143
2022-10-01T00:19:32.296Z,9.111111111111143
2022-10-01T00:20:32.292Z,9.111111111111143
2022-10-01T00:21:32.628Z,9.111111111111143
2022-10-01T00:22:32.290Z,9.111111111111143
2022-10-01T00:23:32.277Z,9.111111111111143
2022-10-01T00:24:32.310Z,9.111111111111143
2022-10-01T00:25:32.407Z,9.111111111111143
2022-10-01T00:26:32.295Z,9.111111111111143
2022-10-01T00:27:32.286Z,9.000000000000057
2022-10-01T00:28:32.296Z,9.000000000000057
2022-10-01T00:29:32.250Z,9.000000000000057
2022-10-01T00:30:32.315Z,9.000000000000057
2022-10-01T00:31:32.870Z,9.000000000000057
2022-10-01T00:32:32.300Z,9.000000000000057
2022-10-01T00:33:32.261Z,9.000000000000057
2022-10-01T00:34:32.252Z,9.000000000000057
2022-10-01T00:35:32.275Z,9.000000000000057
2022-10-01T00:36:32.293Z,9.000000000000057
2022-10-01T00:37:32.294Z,9.000000000000057
2022-10-01T00:38:32.283Z,9.000000000000057
2022-10-01T00:39:32.301Z,8.888888888888914
2022-10-01T00:40:32.293Z,8.888888888888914
2022-10-01T00:41:32.728Z,8.888888888888914
2022-10-01T00:42:32.261Z,8.888888888888914
2022-10-01T00:43:32.287Z,8.888888888888914
2022-10-01T00:44:32.294Z,8.888888888888914
2022-10-01T00:45:32.306Z,8.888888888888914
2022-10-01T00:46:32.253Z,8.888888888888914
2022-10-01T00:47:32.316Z,8.888888888888914
2022-10-01T00:48:32.308Z,8.888888888888914
2022-10-01T00:49:32.314Z,8.888888888888914
2022-10-01T00:50:32.265Z,8.888888888888914
2022-10-01T00:51:32.663Z,8.888888888888914
2022-10-01T00:52:32.295Z,8.888888888888914
2022-10-01T00:53:32.309Z,8.888888888888914
2022-10-01T00:54:32.259Z,8.888888888888914
2022-10-01T00:55:32.368Z,8.888888888888914
2022-10-01T00:56:32.261Z,8.888888888888914
2022-10-01T00:57:32.274Z,8.888888888888914
2022-10-01T00:58:32.271Z,8.888888888888914
2022-10-01T00:59:32.272Z,8.888888888888914
2022-10-01T01:00:32.305Z,8.888888888888914
2022-10-01T01:01:32.676Z,8.888888888888914
2022-10-01T01:02:32.385Z,8.888888888888914
2022-10-01T01:03:32.378Z,8.888888888888914
2022-10-01T01:04:32.362Z,8.888888888888914
2022-10-01T01:05:32.347Z,8.888888888888914
2022-10-01T01:06:32.253Z,9.000000000000057
2022-10-01T01:07:32.360Z,9.000000000000057
2022-10-01T01:08:32.278Z,9.000000000000057
2022-10-01T01:09:32.272Z,9.000000000000057
2022-10-01T01:10:32.447Z,9.000000000000057
2022-10-01T01:11:32.610Z,9.000000000000057
2022-10-01T01:12:32.302Z,9.000000000000057
2022-10-01T01:13:32.317Z,9.000000000000057
2022-10-01T01:14:32.243Z,9.000000000000057
2022-10-01T01:15:32.388Z,9.111111111111143
2022-10-01T01:16:32.283Z,9.111111111111143
2022-10-01T01:17:32.303Z,9.111111111111143
2022-10-01T01:18:32.258Z,9.111111111111143
2022-10-01T01:19:32.288Z,9.111111111111143
2022-10-01T01:20:32.292Z,9.111111111111143
2022-10-01T01:21:32.478Z,9.111111111111143
2022-10-01T01:22:32.255Z,9.111111111111143
2022-10-01T01:23:32.288Z,9.111111111111143
2022-10-01T01:24:32.264Z,9.111111111111143
2022-10-01T01:25:32.305Z,9.111111111111143
2022-10-01T01:26:32.258Z,9.111111111111143
2022-10-01T01:27:32.268Z,9.111111111111143
2022-10-01T01:28:32.294Z,9.111111111111143
2022-10-01T01:29:32.315Z,9.111111111111143
2022-10-01T01:30:32.263Z,9.222222222222285
2022-10-01T01:31:32.792Z,9.222222222222285
2022-10-01T01:32:32.267Z,9.222222222222285
2022-10-01T01:33:32.280Z,9.222222222222285
2022-10-01T01:34:32.274Z,9.222222222222285
2022-10-01T01:35:32.269Z,9.111111111111143
2022-10-01T01:36:32.280Z,9.111111111111143
2022-10-01T01:37:32.264Z,9.222222222222285
2022-10-01T01:38:32.296Z,9.222222222222285
2022-10-01T01:39:32.312Z,9.222222222222285
2022-10-01T01:40:32.338Z,9.222222222222285
2022-10-01T01:41:32.723Z,9.222222222222285
2022-10-01T01:42:32.412Z,9.222222222222285
2022-10-01T01:43:32.385Z,9.222222222222285
2022-10-01T01:44:32.351Z,9.222222222222285
2022-10-01T01:45:32.510Z,9.222222222222285
2022-10-01T01:46:32.437Z,9.111111111111143
2022-10-01T01:47:32.410Z,9.111111111111143
2022-10-01T01:48:32.406Z,9.111111111111143
2022-10-01T01:49:32.286Z,9.111111111111143
2022-10-01T01:50:32.283Z,9.111111111111143
2022-10-01T01:51:32.657Z,9.111111111111143
2022-10-01T01:52:32.244Z,9.111111111111143
2022-10-01T01:53:32.276Z,9.222222222222285
2022-10-01T01:54:32.282Z,9.222222222222285
2022-10-01T01:55:32.263Z,9.222222222222285
2022-10-01T01:56:32.274Z,9.222222222222285
2022-10-01T01:57:32.281Z,9.222222222222285
2022-10-01T01:58:32.279Z,9.222222222222285
2022-10-01T01:59:32.296Z,9.222222222222285
2022-10-01T02:00:32.233Z,9.222222222222285
2022-10-01T02:01:32.549Z,9.222222222222285
2022-10-01T02:02:32.333Z,9.222222222222285
2022-10-01T02:03:32.271Z,9.222222222222285
2022-10-01T02:04:32.262Z,9.222222222222285
2022-10-01T02:05:32.287Z,9.222222222222285
2022-10-01T02:06:32.274Z,9.222222222222285
2022-10-01T02:07:32.253Z,9.222222222222285
2022-10-01T02:08:32.252Z,9.222222222222285
2022-10-01T02:09:32.281Z,9.111111111111143
2022-10-01T02:10:32.273Z,9.111111111111143
2022-10-01T02:11:32.619Z,9.111111111111143
2022-10-01T02:12:32.252Z,9.111111111111143
2022-10-01T02:13:32.296Z,9.111111111111143
2022-10-01T02:14:32.285Z,9.111111111111143
2022-10-01T02:15:32.455Z,9.111111111111143
2022-10-01T02:16:32.254Z,9.111111111111143
2022-10-01T02:17:32.292Z,9.111111111111143
2022-10-01T02:18:32.263Z,9.111111111111143
2022-10-01T02:19:32.281Z,9.111111111111143
2022-10-01T02:20:32.240Z,9.111111111111143
2022-10-01T02:21:32.570Z,9.111111111111143
2022-10-01T02:22:32.320Z,9.111111111111143
2022-10-01T02:23:32.287Z,9.111111111111143
2022-10-01T02:24:32.274Z,9.111111111111143
2022-10-01T02:25:32.407Z,9.111111111111143
2022-10-01T02:26:32.274Z,9.111111111111143
2022-10-01T02:27:32.265Z,9.111111111111143
2022-10-01T02:28:32.259Z,9.111111111111143
2022-10-01T02:29:32.282Z,9.111111111111143
2022-10-01T02:30:32.277Z,9.111111111111143
2022-10-01T02:31:32.785Z,9.111111111111143
2022-10-01T02:32:32.233Z,9.222222222222285
2022-10-01T02:33:32.260Z,9.111111111111143
2022-10-01T02:34:32.289Z,9.111111111111143
2022-10-01T02:35:32.275Z,9.111111111111143
2022-10-01T02:36:32.291Z,9.111111111111143
2022-10-01T02:37:32.230Z,9.111111111111143
2022-10-01T02:38:32.248Z,9.111111111111143
2022-10-01T02:39:32.305Z,9.111111111111143
2022-10-01T02:40:32.278Z,9.111111111111143
2022-10-01T02:41:32.566Z,9.111111111111143
2022-10-01T02:42:32.286Z,9.111111111111143
2022-10-01T02:43:32.264Z,9.111111111111143
2022-10-01T02:44:32.275Z,9.111111111111143
2022-10-01T02:45:32.385Z,9.111111111111143
2022-10-01T02:46:32.269Z,9.111111111111143
2022-10-01T02:47:32.396Z,9.111111111111143
2022-10-01T02:48:32.256Z,9.111111111111143
2022-10-01T02:49:32.237Z,9.111111111111143
2022-10-01T02:50:32.266Z,9.111111111111143
2022-10-01T02:51:32.564Z,9.111111111111143
2022-10-01T02:52:32.277Z,9.111111111111143
2022-10-01T02:53:32.290Z,9.111111111111143
2022-10-01T02:54:32.256Z,9.111111111111143
2022-10-01T02:55:32.260Z,9.111111111111143
2022-10-01T02:56:32.255Z,9.111111111111143
2022-10-01T02:57:32.238Z,9.111111111111143
2022-10-01T02:58:32.261Z,9.111111111111143
2022-10-01T02:59:32.256Z,9.111111111111143
2022-10-01T03:00:32.262Z,9.111111111111143
2022-10-01T03:01:32.658Z,9.000000000000057
2022-10-01T03:02:32.422Z,9.000000000000057
2022-10-01T03:03:32.274Z,9.000000000000057
2022-10-01T03:04:32.292Z,9.000000000000057
2022-10-01T03:05:32.231Z,9.000000000000057
2022-10-01T03:06:32.262Z,9.000000000000057
2022-10-01T03:07:32.269Z,9.000000000000057
2022-10-01T03:08:32.264Z,9.000000000000057
2022-10-01T03:09:32.253Z,9.000000000000057
2022-10-01T03:10:32.325Z,9.000000000000057
2022-10-01T03:11:32.626Z,9.000000000000057
2022-10-01T03:12:32.321Z,8.888888888888914
2022-10-01T03:13:32.353Z,8.888888888888914
2022-10-01T03:14:32.749Z,8.888888888888914
2022-10-01T03:15:32.380Z,8.888888888888914
2022-10-01T03:16:32.365Z,8.888888888888914
2022-10-01T03:17:32.348Z,8.888888888888914
2022-10-01T03:18:32.391Z,8.888888888888914
2022-10-01T03:19:32.266Z,8.888888888888914
2022-10-01T03:20:32.323Z,8.888888888888914
2022-10-01T03:21:32.633Z,8.888888888888914
2022-10-01T03:22:32.290Z,8.888888888888914
2022-10-01T03:23:32.380Z,8.888888888888914
2022-10-01T03:24:32.394Z,8.888888888888914
2022-10-01T03:25:32.354Z,8.777777777777828
2022-10-01T03:26:32.437Z,8.777777777777828
2022-10-01T03:27:32.447Z,8.777777777777828
2022-10-01T03:28:32.282Z,8.777777777777828
2022-10-01T03:29:32.345Z,8.777777777777828
2022-10-01T03:30:32.373Z,8.777777777777828
2022-10-01T03:31:32.649Z,8.777777777777828
2022-10-01T03:32:32.305Z,8.777777777777828
2022-10-01T03:33:32.269Z,8.777777777777828
2022-10-01T03:34:32.270Z,8.777777777777828
2022-10-01T03:35:32.250Z,8.777777777777828
2022-10-01T03:36:32.268Z,8.777777777777828
2022-10-01T03:37:32.262Z,8.777777777777828
2022-10-01T03:38:32.228Z,8.777777777777828
2022-10-01T03:39:32.283Z,8.777777777777828
2022-10-01T03:40:32.380Z,8.722222222222285
2022-10-01T03:41:32.631Z,8.722222222222285
2022-10-01T03:42:32.309Z,8.722222222222285
2022-10-01T03:43:32.247Z,8.722222222222285
2022-10-01T03:44:32.304Z,8.722222222222285
2022-10-01T03:45:32.397Z,8.722222222222285
2022-10-01T03:46:32.244Z,8.722222222222285
2022-10-01T03:47:32.242Z,8.777777777777828
2022-10-01T03:48:32.500Z,8.777777777777828
2022-10-01T03:49:32.280Z,8.777777777777828
2022-10-01T03:50:32.239Z,8.722222222222285
2022-10-01T03:51:32.709Z,8.722222222222285
2022-10-01T03:52:32.271Z,8.722222222222285
2022-10-01T03:53:32.433Z,8.722222222222285
2022-10-01T03:54:32.215Z,8.722222222222285
2022-10-01T03:55:32.293Z,8.722222222222285
2022-10-01T03:56:32.285Z,8.611111111111143
2022-10-01T03:57:32.311Z,8.611111111111143
2022-10-01T03:58:32.250Z,8.611111111111143
2022-10-01T03:59:32.278Z,8.611111111111143
2022-10-01T04:00:32.255Z,8.611111111111143
2022-10-01T04:01:32.779Z,8.611111111111143
2022-10-01T04:02:32.457Z,8.611111111111143
2022-10-01T04:03:32.281Z,8.611111111111143
2022-10-01T04:04:32.249Z,8.722222222222285
2022-10-01T04:05:32.425Z,8.722222222222285
2022-10-01T04:06:32.258Z,8.722222222222285
2022-10-01T04:07:32.276Z,8.722222222222285
2022-10-01T04:08:32.288Z,8.722222222222285
2022-10-01T04:09:32.350Z,8.722222222222285
2022-10-01T04:10:32.261Z,8.777777777777828
2022-10-01T04:11:32.712Z,8.777777777777828
2022-10-01T04:12:32.269Z,8.777777777777828
2022-10-01T04:13:32.249Z,8.777777777777828
2022-10-01T04:14:32.236Z,8.777777777777828
2022-10-01T04:15:32.388Z,8.777777777777828
2022-10-01T04:16:32.328Z,8.777777777777828
2022-10-01T04:17:32.270Z,8.777777777777828
2022-10-01T04:18:32.248Z,8.777777777777828
2022-10-01T04:19:32.265Z,8.777777777777828
2022-10-01T04:20:32.249Z,8.777777777777828
2022-10-01T04:21:32.780Z,8.777777777777828
2022-10-01T04:22:32.288Z,8.777777777777828
2022-10-01T04:23:32.292Z,8.777777777777828
2022-10-01T04:24:32.270Z,8.777777777777828
2022-10-01T04:25:32.280Z,8.777777777777828
2022-10-01T04:26:32.246Z,8.777777777777828
2022-10-01T04:27:32.273Z,8.888888888888914
2022-10-01T04:28:32.499Z,8.777777777777828
2022-10-01T04:29:33.925Z,8.888888888888914
2022-10-01T04:30:32.228Z,8.888888888888914
2022-10-01T04:31:32.645Z,8.888888888888914
2022-10-01T04:32:32.241Z,8.888888888888914
2022-10-01T04:33:32.229Z,8.888888888888914
2022-10-01T04:34:32.271Z,8.888888888888914
2022-10-01T04:35:32.213Z,8.888888888888914
2022-10-01T04:36:32.272Z,8.888888888888914
2022-10-01T04:37:32.327Z,8.888888888888914
2022-10-01T04:38:32.277Z,8.888888888888914
2022-10-01T04:39:32.206Z,8.888888888888914
2022-10-01T04:40:32.263Z,8.888888888888914
2022-10-01T04:41:32.456Z,8.888888888888914
2022-10-01T04:42:32.283Z,8.777777777777828
2022-10-01T04:43:32.254Z,8.777777777777828
2022-10-01T04:44:32.237Z,8.777777777777828
2022-10-01T04:45:32.266Z,8.777777777777828
2022-10-01T04:46:32.390Z,8.888888888888914
2022-10-01T04:47:36.841Z,8.888888888888914
2022-10-01T04:48:32.263Z,8.888888888888914
2022-10-01T04:49:32.262Z,8.888888888888914
2022-10-01T04:50:32.266Z,8.888888888888914
2022-10-01T04:51:32.544Z,8.888888888888914
2022-10-01T04:52:32.241Z,8.888888888888914
2022-10-01T04:53:32.262Z,8.888888888888914
2022-10-01T04:54:32.237Z,8.888888888888914
2022-10-01T04:55:32.267Z,8.777777777777828
2022-10-01T04:56:32.271Z,8.777777777777828
2022-10-01T04:57:32.253Z,8.777777777777828
2022-10-01T04:58:32.273Z,8.777777777777828
2022-10-01T04:59:32.227Z,8.777777777777828
2022-10-01T05:00:32.423Z,8.777777777777828
2022-10-01T05:01:32.853Z,8.777777777777828
2022-10-01T05:02:32.280Z,8.722222222222285
2022-10-01T05:03:32.235Z,8.722222222222285
2022-10-01T05:04:32.302Z,8.722222222222285
2022-10-01T05:05:32.263Z,8.722222222222285
2022-10-01T05:06:32.286Z,8.722222222222285
2022-10-01T05:07:32.242Z,8.722222222222285
2022-10-01T05:08:32.304Z,8.722222222222285
2022-10-01T05:09:32.242Z,8.611111111111143
2022-10-01T05:10:32.267Z,8.611111111111143
2022-10-01T05:11:32.493Z,8.722222222222285
2022-10-01T05:12:32.273Z,8.722222222222285
2022-10-01T05:13:32.235Z,8.722222222222285
2022-10-01T05:14:32.287Z,8.722222222222285
2022-10-01T05:15:32.321Z,8.722222222222285
2022-10-01T05:16:32.321Z,8.777777777777828
2022-10-01T05:17:32.283Z,8.777777777777828
2022-10-01T05:18:32.306Z,8.777777777777828
2022-10-01T05:19:32.224Z,8.777777777777828
2022-10-01T05:20:32.263Z,8.777777777777828
2022-10-01T05:21:32.676Z,8.777777777777828
2022-10-01T05:22:32.261Z,8.888888888888914
2022-10-01T05:23:32.272Z,8.888888888888914
2022-10-01T05:24:32.268Z,8.888888888888914
2022-10-01T05:25:32.256Z,8.888888888888914
2022-10-01T05:26:32.248Z,9.000000000000057
2022-10-01T05:27:32.242Z,9.000000000000057
2022-10-01T05:28:32.341Z,9.000000000000057
2022-10-01T05:29:32.270Z,9.000000000000057
2022-10-01T05:30:32.262Z,9.000000000000057
2022-10-01T05:31:32.827Z,9.000000000000057
2022-10-01T05:32:32.279Z,9.111111111111143
2022-10-01T05:33:32.263Z,9.222222222222285
2022-10-01T05:34:32.251Z,9.222222222222285
2022-10-01T05:35:32.265Z,9.222222222222285
2022-10-01T05:36:32.263Z,9.222222222222285
2022-10-01T05:37:32.218Z,9.222222222222285
2022-10-01T05:38:32.256Z,9.222222222222285
2022-10-01T05:39:32.266Z,9.222222222222285
2022-10-01T05:40:32.256Z,9.222222222222285
2022-10-01T05:41:32.591Z,9.222222222222285
2022-10-01T05:42:32.239Z,9.222222222222285
2022-10-01T05:43:32.244Z,9.222222222222285
2022-10-01T05:44:32.324Z,9.222222222222285
2022-10-01T05:45:32.365Z,9.222222222222285
2022-10-01T05:46:32.247Z,9.222222222222285
2022-10-01T05:47:32.237Z,9.277777777777828
2022-10-01T05:48:32.268Z,9.277777777777828
2022-10-01T05:49:32.255Z,9.277777777777828
2022-10-01T05:50:32.248Z,9.277777777777828
2022-10-01T05:51:32.467Z,9.388888888888914
2022-10-01T05:52:32.259Z,9.388888888888914
2022-10-01T05:53:32.234Z,9.388888888888914
2022-10-01T05:54:32.441Z,9.388888888888914
2022-10-01T05:55:32.268Z,9.388888888888914
2022-10-01T05:56:32.246Z,9.500000000000057
2022-10-01T05:57:32.239Z,9.500000000000057
2022-10-01T05:58:32.270Z,9.500000000000057
2022-10-01T05:59:32.322Z,9.500000000000057
2022-10-01T06:00:32.262Z,9.500000000000057
2022-10-01T06:01:32.621Z,9.500000000000057
2022-10-01T06:02:32.343Z,9.500000000000057
2022-10-01T06:03:32.258Z,9.500000000000057
2022-10-01T06:04:32.377Z,9.611111111111143
2022-10-01T06:05:32.221Z,9.611111111111143
2022-10-01T06:06:32.236Z,9.611111111111143
2022-10-01T06:07:32.369Z,9.611111111111143
2022-10-01T06:08:32.268Z,9.611111111111143
2022-10-01T06:09:32.234Z,9.611111111111143
2022-10-01T06:10:32.263Z,9.611111111111143
2022-10-01T06:11:32.636Z,9.611111111111143
2022-10-01T06:12:32.286Z,9.611111111111143
2022-10-01T06:13:32.381Z,9.611111111111143
2022-10-01T06:14:32.257Z,9.611111111111143
2022-10-01T06:15:32.247Z,9.611111111111143
2022-10-01T06:16:32.311Z,9.611111111111143
2022-10-01T06:17:32.232Z,9.611111111111143
2022-10-01T06:18:32.236Z,9.611111111111143
2022-10-01T06:19:32.242Z,9.611111111111143
2022-10-01T06:20:32.298Z,9.611111111111143
2022-10-01T06:21:32.480Z,9.722222222222285
2022-10-01T06:22:32.256Z,9.722222222222285
2022-10-01T06:23:32.248Z,9.722222222222285
2022-10-01T06:24:32.241Z,9.722222222222285
2022-10-01T06:25:32.207Z,9.722222222222285
2022-10-01T06:26:32.265Z,9.722222222222285
2022-10-01T06:27:32.228Z,9.777777777777828
2022-10-01T06:28:32.311Z,9.777777777777828
2022-10-01T06:29:32.234Z,9.777777777777828
2022-10-01T06:30:32.244Z,9.777777777777828
2022-10-01T06:31:32.740Z,9.777777777777828
2022-10-01T06:32:34.898Z,9.777777777777828
2022-10-01T06:33:32.258Z,9.777777777777828
2022-10-01T06:34:32.213Z,9.777777777777828
2022-10-01T06:35:32.250Z,9.888888888888914
2022-10-01T06:36:32.252Z,9.888888888888914
2022-10-01T06:37:32.247Z,9.888888888888914
2022-10-01T06:38:32.229Z,9.888888888888914
2022-10-01T06:39:32.247Z,10.000000000000057
2022-10-01T06:40:32.238Z,10.000000000000057
2022-10-01T06:41:32.533Z,10.000000000000057
2022-10-01T06:42:32.222Z,10.000000000000057
2022-10-01T06:43:32.275Z,10.000000000000057
2022-10-01T06:44:32.354Z,10.111111111111143
2022-10-01T06:45:32.303Z,10.111111111111143
2022-10-01T06:46:32.204Z,10.111111111111143
2022-10-01T06:47:32.242Z,10.111111111111143
2022-10-01T06:48:32.253Z,10.111111111111143
2022-10-01T06:49:32.283Z,10.222222222222229
2022-10-01T06:50:32.246Z,10.222222222222229
2022-10-01T06:51:32.541Z,10.222222222222229
2022-10-01T06:52:32.421Z,10.222222222222229
2022-10-01T06:53:32.243Z,10.222222222222229
2022-10-01T06:54:32.234Z,10.222222222222229
2022-10-01T06:55:32.247Z,10.222222222222229
2022-10-01T06:56:32.257Z,10.277777777777828
2022-10-01T06:57:32.251Z,10.277777777777828
2022-10-01T06:58:32.222Z,10.277777777777828
2022-10-01T06:59:32.260Z,10.277777777777828
2022-10-01T07:00:32.239Z,10.277777777777828
2022-10-01T07:01:32.705Z,10.277777777777828
2022-10-01T07:02:32.319Z,10.277777777777828
2022-10-01T07:03:32.275Z,10.277777777777828
2022-10-01T07:04:32.252Z,10.277777777777828
2022-10-01T07:05:32.233Z,10.277777777777828
2022-10-01T07:06:32.236Z,10.277777777777828
2022-10-01T07:07:32.245Z,10.388888888888914
2022-10-01T07:08:32.241Z,10.388888888888914
2022-10-01T07:09:32.248Z,10.388888888888914
2022-10-01T07:10:32.219Z,10.388888888888914
2022-10-01T07:11:32.871Z,10.388888888888914
2022-10-01T07:12:32.280Z,10.388888888888914
2022-10-01T07:13:32.267Z,10.388888888888914
2022-10-01T07:14:32.223Z,10.388888888888914
2022-10-01T07:15:32.235Z,10.388888888888914
2022-10-01T07:16:32.296Z,10.388888888888914
2022-10-01T07:17:32.261Z,10.388888888888914
2022-10-01T07:18:32.243Z,10.388888888888914
2022-10-01T07:19:32.254Z,10.388888888888914
2022-10-01T07:20:32.251Z,10.388888888888914
2022-10-01T07:21:32.523Z,10.388888888888914
2022-10-01T07:22:32.257Z,10.388888888888914
2022-10-01T07:23:32.257Z,10.388888888888914
2022-10-01T07:24:32.258Z,10.388888888888914
2022-10-01T07:25:32.248Z,10.388888888888914
2022-10-01T07:26:32.248Z,10.388888888888914
2022-10-01T07:27:32.232Z,10.388888888888914
2022-10-01T07:28:32.254Z,10.388888888888914
2022-10-01T07:29:32.231Z,10.388888888888914
2022-10-01T07:30:32.228Z,10.500000000000057
2022-10-01T07:31:32.731Z,10.500000000000057
2022-10-01T07:32:32.225Z,10.500000000000057
2022-10-01T07:33:32.245Z,10.500000000000057
2022-10-01T07:34:32.362Z,10.500000000000057
2022-10-01T07:35:32.235Z,10.611111111111143
2022-10-01T07:36:32.207Z,10.611111111111143
2022-10-01T07:37:32.274Z,10.611111111111143
2022-10-01T07:38:32.232Z,10.611111111111143
2022-10-01T07:39:32.218Z,10.611111111111143
2022-10-01T07:40:32.194Z,10.611111111111143
2022-10-01T07:41:32.633Z,10.611111111111143
2022-10-01T07:42:32.235Z,10.611111111111143
2022-10-01T07:43:32.221Z,10.611111111111143
2022-10-01T07:44:32.301Z,10.611111111111143
2022-10-01T07:45:32.298Z,10.611111111111143
2022-10-01T07:46:34.756Z,10.611111111111143
2022-10-01T07:47:32.215Z,10.722222222222285
2022-10-01T07:48:32.319Z,10.722222222222285
2022-10-01T07:49:32.246Z,10.722222222222285
2022-10-01T07:50:32.226Z,10.722222222222285
2022-10-01T07:51:32.569Z,10.722222222222285
2022-10-01T07:52:32.287Z,10.722222222222285
2022-10-01T07:53:32.243Z,10.722222222222285
2022-10-01T07:54:32.250Z,10.722222222222285
2022-10-01T07:55:32.204Z,10.611111111111143
2022-10-01T07:56:32.233Z,10.611111111111143
2022-10-01T07:57:32.226Z,10.611111111111143
2022-10-01T07:58:32.213Z,10.611111111111143
2022-10-01T07:59:32.198Z,10.611111111111143
2022-10-01T08:00:32.391Z,10.611111111111143
2022-10-01T08:01:32.698Z,10.611111111111143
2022-10-01T08:02:32.317Z,10.722222222222285
2022-10-01T08:03:32.203Z,10.777777777777828
2022-10-01T08:04:32.251Z,10.777777777777828
2022-10-01T08:05:32.242Z,11.000000000000057
2022-10-01T08:06:32.214Z,10.888888888888971
2022-10-01T08:07:32.206Z,10.888888888888971
2022-10-01T08:08:32.240Z,10.888888888888971
2022-10-01T08:09:32.247Z,10.888888888888971
2022-10-01T08:10:32.270Z,10.888888888888971
2022-10-01T08:11:32.454Z,10.888888888888971
2022-10-01T08:12:32.244Z,10.888888888888971
2022-10-01T08:13:32.264Z,10.888888888888971
2022-10-01T08:14:32.244Z,10.888888888888971
2022-10-01T08:15:32.222Z,10.888888888888971
2022-10-01T08:16:32.274Z,10.888888888888971
2022-10-01T08:17:32.237Z,11.000000000000057
2022-10-01T08:18:32.245Z,11.000000000000057
2022-10-01T08:19:32.213Z,11.000000000000057
2022-10-01T08:20:32.234Z,11.000000000000057
2022-10-01T08:21:32.632Z,11.000000000000057
2022-10-01T08:22:32.259Z,11.000000000000057
2022-10-01T08:23:32.242Z,11.000000000000057
2022-10-01T08:24:32.248Z,11.111111111111143
2022-10-01T08:25:32.259Z,11.111111111111143
2022-10-01T08:26:32.240Z,11.111111111111143
2022-10-01T08:27:32.215Z,11.000000000000057
2022-10-01T08:28:32.286Z,11.000000000000057
2022-10-01T08:29:32.269Z,11.000000000000057
2022-10-01T08:30:32.291Z,11.000000000000057
2022-10-01T08:31:32.747Z,10.888888888888971
2022-10-01T08:32:32.358Z,10.888888888888971
2022-10-01T08:33:32.235Z,10.888888888888971
2022-10-01T08:34:32.229Z,10.888888888888971
2022-10-01T08:35:32.221Z,10.888888888888971
2022-10-01T08:36:32.223Z,10.777777777777828
2022-10-01T08:37:32.257Z,10.777777777777828
2022-10-01T08:38:32.223Z,10.777777777777828
2022-10-01T08:39:32.239Z,10.777777777777828
2022-10-01T08:40:32.215Z,10.777777777777828
2022-10-01T08:41:32.237Z,10.777777777777828
2022-10-01T08:42:32.211Z,10.777777777777828
2022-10-01T08:43:32.258Z,10.777777777777828
2022-10-01T08:44:32.224Z,10.722222222222285
2022-10-01T08:45:32.437Z,10.722222222222285
2022-10-01T08:46:32.211Z,10.722222222222285
2022-10-01T08:47:32.219Z,10.722222222222285
2022-10-01T08:48:32.235Z,10.722222222222285
2022-10-01T08:49:32.222Z,10.722222222222285
2022-10-01T08:50:32.200Z,10.722222222222285
2022-10-01T08:51:32.541Z,10.722222222222285
2022-10-01T08:52:32.225Z,10.722222222222285
2022-10-01T08:53:32.271Z,10.722222222222285
2022-10-01T08:54:32.217Z,10.722222222222285
2022-10-01T08:55:32.236Z,10.722222222222285
2022-10-01T08:56:32.243Z,10.722222222222285
2022-10-01T08:57:32.253Z,10.722222222222285
2022-10-01T08:58:32.220Z,10.722222222222285
2022-10-01T08:59:32.250Z,10.722222222222285
2022-10-01T09:00:32.235Z,10.722222222222285
2022-10-01T09:01:32.531Z,10.722222222222285
2022-10-01T09:02:32.291Z,10.722222222222285
2022-10-01T09:03:32.237Z,10.777777777777828
2022-10-01T09:04:32.290Z,10.777777777777828
2022-10-01T09:05:32.234Z,10.888888888888971
2022-10-01T09:06:32.219Z,10.888888888888971
2022-10-01T09:07:32.244Z,11.000000000000057
2022-10-01T09:08:32.225Z,11.111111111111143
2022-10-01T09:09:32.226Z,11.388888888888971
2022-10-01T09:10:32.185Z,11.6111111111112
2022-10-01T09:11:32.672Z,11.888888888888971
2022-10-01T09:12:32.290Z,12
2022-10-01T09:13:32.219Z,12.222222222222285